Terminal Aerodrome Forecast
Issued by NWS

Home | Current Version | Previous Version | Text Only | Print | Product List | Glossary On
Versions: 1 2 3 4 5 6 7 8 9 10 11 12 13 14 15 16 17 18 19 20 21 22 23
000
FTUS46 KSEW 051700
TAFSEA
TAF
KSEA 051733Z 0518/0624 21014KT P6SM VCSH FEW015 SCT030 SCT200
      TEMPO 0518/0522 -SHRA SCT012 BKN025 BKN050
     FM052200 22012KT P6SM VCTS SCT030 BKN050CB
     FM060400 VRB05KT P6SM VCSH SCT030 BKN050
     FM060700 18004KT P6SM VCSH BKN025 BKN050
     FM061800 VRB04KT P6SM VCSH SCT030 BKN050=

USA.gov is the U.S. government's official web portal to all federal, state and local government web resources and services.